createdAt,value
2023-05-17T00:00:01.467Z,99.90
2023-05-17T00:02:30.811Z,99.90
2023-05-17T00:04:59.166Z,99.90
2023-05-17T00:07:27.198Z,99.90
2023-05-17T00:09:55.116Z,99.90
2023-05-17T00:12:23.072Z,99.90
2023-05-17T00:14:50.998Z,99.90
2023-05-17T00:17:18.922Z,99.90
2023-05-17T00:19:48.290Z,99.90
2023-05-17T00:22:16.308Z,99.90
2023-05-17T00:24:44.215Z,99.90
2023-05-17T00:27:12.120Z,99.90
2023-05-17T00:29:40.013Z,99.90
2023-05-17T00:32:08.330Z,99.90
2023-05-17T00:34:36.251Z,99.90
2023-05-17T00:37:05.965Z,99.90
2023-05-17T00:39:33.880Z,99.90
2023-05-17T00:42:02.042Z,99.90
2023-05-17T00:44:29.906Z,99.60
2023-05-17T00:46:59.708Z,99.90
2023-05-17T00:49:27.804Z,99.90
2023-05-17T00:51:56.200Z,99.90
2023-05-17T00:54:26.711Z,99.10
2023-05-17T00:56:57.014Z,98.90
2023-05-17T00:59:25.524Z,97.30
2023-05-17T01:01:53.514Z,96.10
2023-05-17T01:04:21.857Z,97.00
2023-05-17T01:06:50.257Z,96.80
2023-05-17T01:09:20.025Z,96.50
2023-05-17T01:11:56.229Z,97.00
2023-05-17T01:14:29.286Z,96.60
2023-05-17T01:16:58.633Z,96.70
2023-05-17T01:19:41.542Z,96.30
2023-05-17T01:22:16.381Z,97.10
2023-05-17T01:25:00.747Z,98.00
2023-05-17T01:27:31.132Z,98.40
2023-05-17T01:29:59.227Z,99.50
2023-05-17T01:32:27.545Z,98.40
2023-05-17T01:34:55.511Z,98.90
2023-05-17T01:37:23.470Z,99.60
2023-05-17T01:39:51.644Z,99.90
2023-05-17T01:42:22.972Z,99.70
2023-05-17T01:44:55.908Z,99.10
2023-05-17T01:47:28.555Z,99.50
2023-05-17T01:49:56.652Z,99.90
2023-05-17T01:52:28.254Z,99.40
2023-05-17T01:55:01.422Z,98.70
2023-05-17T01:57:30.513Z,99.30
2023-05-17T02:00:00.779Z,99.00
2023-05-17T02:02:28.747Z,98.50
2023-05-17T02:04:56.733Z,99.90
2023-05-17T02:07:24.609Z,99.90
2023-05-17T02:09:52.516Z,99.60
2023-05-17T02:12:20.379Z,99.60
2023-05-17T02:14:48.258Z,99.90
2023-05-17T02:17:17.674Z,98.50
2023-05-17T02:19:45.603Z,99.10
2023-05-17T02:22:13.517Z,99.90
2023-05-17T02:24:41.429Z,99.90
2023-05-17T02:27:09.300Z,99.90
2023-05-17T02:29:37.221Z,99.90
2023-05-17T02:32:06.209Z,99.90
2023-05-17T02:34:35.503Z,99.90
2023-05-17T02:37:03.491Z,99.90
2023-05-17T02:39:33.276Z,99.90
2023-05-17T02:42:01.152Z,99.90
2023-05-17T02:44:29.043Z,99.90
2023-05-17T02:46:57.014Z,99.90
2023-05-17T02:49:25.009Z,99.90
2023-05-17T02:51:54.288Z,99.90
2023-05-17T02:54:22.118Z,99.90
2023-05-17T02:56:50.221Z,99.90
2023-05-17T02:59:18.194Z,99.90
2023-05-17T03:01:49.738Z,99.90
2023-05-17T03:04:20.331Z,99.90
2023-05-17T03:06:48.270Z,99.90
2023-05-17T03:09:17.537Z,99.90
2023-05-17T03:11:46.049Z,99.90
2023-05-17T03:14:13.931Z,99.90
2023-05-17T03:16:41.826Z,99.90
2023-05-17T03:19:09.941Z,99.90
2023-05-17T03:21:37.986Z,99.90
2023-05-17T03:24:06.095Z,99.90
2023-05-17T03:26:35.418Z,99.90
2023-05-17T03:29:03.671Z,99.90
2023-05-17T03:31:31.625Z,99.90
2023-05-17T03:33:59.679Z,99.90
2023-05-17T03:36:27.688Z,99.90
2023-05-17T03:38:55.581Z,99.90
2023-05-17T03:41:23.598Z,99.90
2023-05-17T03:43:52.856Z,99.90
2023-05-17T03:46:20.740Z,99.90
2023-05-17T03:48:48.675Z,99.90
2023-05-17T03:51:16.839Z,99.90
2023-05-17T03:53:44.800Z,99.10
2023-05-17T03:56:12.753Z,98.90
2023-05-17T03:58:40.709Z,97.60
2023-05-17T04:01:10.035Z,96.90
2023-05-17T04:03:38.075Z,97.40
2023-05-17T04:06:07.390Z,98.20
2023-05-17T04:08:35.347Z,96.70
2023-05-17T04:11:10.165Z,96.00
2023-05-17T04:13:38.478Z,96.40
2023-05-17T04:16:06.863Z,96.70
2023-05-17T04:18:37.386Z,96.00
2023-05-17T04:21:05.844Z,96.80
2023-05-17T04:23:34.675Z,96.40
2023-05-17T04:26:03.225Z,95.20
2023-05-17T04:28:31.542Z,94.20
2023-05-17T04:30:59.526Z,94.80
2023-05-17T04:33:27.566Z,92.00
2023-05-17T04:35:57.653Z,90.60
2023-05-17T04:38:25.624Z,90.10
2023-05-17T04:40:53.582Z,90.80
2023-05-17T04:43:21.540Z,90.60
2023-05-17T04:45:49.494Z,90.10
2023-05-17T04:48:19.989Z,88.00
2023-05-17T04:50:48.132Z,86.50
2023-05-17T04:53:17.394Z,88.60
2023-05-17T04:55:46.002Z,88.20
2023-05-17T04:58:13.952Z,88.30
2023-05-17T05:00:41.832Z,86.80
2023-05-17T05:03:09.836Z,87.70
2023-05-17T05:05:37.763Z,87.10
2023-05-17T05:08:05.830Z,87.10
2023-05-17T05:10:35.169Z,91.40
2023-05-17T05:13:03.466Z,86.50
2023-05-17T05:15:32.840Z,84.40
2023-05-17T05:18:00.955Z,86.20
2023-05-17T05:20:28.888Z,85.40
2023-05-17T05:22:58.472Z,86.30
2023-05-17T05:25:26.730Z,87.90
2023-05-17T05:27:56.193Z,89.90
2023-05-17T05:30:24.169Z,90.50
2023-05-17T05:32:52.264Z,92.60
2023-05-17T05:35:20.451Z,90.90
2023-05-17T05:37:48.363Z,92.20
2023-05-17T05:40:16.457Z,92.90
2023-05-17T05:42:44.347Z,89.00
2023-05-17T05:45:13.778Z,90.50
2023-05-17T05:47:41.766Z,92.40
2023-05-17T05:50:10.407Z,90.80
2023-05-17T05:52:38.476Z,91.00
2023-05-17T05:55:06.864Z,90.30
2023-05-17T05:57:35.751Z,90.90
2023-05-17T06:00:04.826Z,93.30
2023-05-17T06:02:34.973Z,93.80
2023-05-17T06:05:03.806Z,91.70
2023-05-17T06:07:31.747Z,91.70
2023-05-17T06:09:59.648Z,91.90
2023-05-17T06:12:27.517Z,92.20
2023-05-17T06:14:55.394Z,92.90
2023-05-17T06:17:23.334Z,92.70
2023-05-17T06:19:52.941Z,93.20
2023-05-17T06:22:20.909Z,93.30
2023-05-17T06:24:48.902Z,91.40
2023-05-17T06:27:16.844Z,93.10
2023-05-17T06:29:44.847Z,82.70
2023-05-17T06:32:12.736Z,72.40
2023-05-17T06:34:40.974Z,83.80
2023-05-17T06:37:10.758Z,86.80
2023-05-17T06:39:38.681Z,78.60
2023-05-17T06:42:06.731Z,80.10
2023-05-17T06:44:34.665Z,80.90
2023-05-17T06:47:02.908Z,83.00
2023-05-17T06:49:30.834Z,82.90
2023-05-17T06:52:03.337Z,85.30
2023-05-17T06:54:32.782Z,63.50
2023-05-17T06:57:01.041Z,73.50
2023-05-17T06:59:29.234Z,75.90
2023-05-17T07:01:57.170Z,74.80
2023-05-17T07:04:25.180Z,67.90
2023-05-17T07:06:53.196Z,70.50
2023-05-17T07:09:21.254Z,68.50
2023-05-17T07:11:50.584Z,57.70
2023-05-17T07:14:18.584Z,58.90
2023-05-17T07:16:47.876Z,68.20
2023-05-17T07:19:16.000Z,65.00
2023-05-17T07:21:44.035Z,61.50
2023-05-17T07:24:11.927Z,59.40
2023-05-17T07:26:39.853Z,56.30
2023-05-17T07:29:09.203Z,56.60
2023-05-17T07:31:37.221Z,56.90
2023-05-17T07:34:05.699Z,55.80
2023-05-17T07:36:33.784Z,55.80
2023-05-17T07:39:04.113Z,58.10
2023-05-17T07:41:32.792Z,51.30
2023-05-17T07:44:00.741Z,57.40
2023-05-17T07:46:30.005Z,58.30
2023-05-17T07:48:58.938Z,54.90
2023-05-17T07:51:27.306Z,63.60
2023-05-17T07:53:55.192Z,40.50
2023-05-17T07:56:23.150Z,42.70
2023-05-17T07:58:51.197Z,42.90
2023-05-17T08:01:19.092Z,34.50
2023-05-17T08:03:48.896Z,42.70
2023-05-17T08:06:17.186Z,47.10
2023-05-17T08:08:45.698Z,48.00
2023-05-17T08:11:14.148Z,46.20
2023-05-17T08:13:42.216Z,25.60
2023-05-17T08:16:14.202Z,35.90
2023-05-17T08:18:44.154Z,30.80
2023-05-17T08:21:13.609Z,19.70
2023-05-17T08:23:41.751Z,21.60
2023-05-17T08:26:09.676Z,25.80
2023-05-17T08:28:37.564Z,20.60
2023-05-17T08:31:05.574Z,24.40
2023-05-17T08:33:33.690Z,19.00
2023-05-17T08:36:04.202Z,21.90
2023-05-17T08:38:34.360Z,22.60
2023-05-17T08:41:03.048Z,21.10
2023-05-17T08:43:31.967Z,21.10
2023-05-17T08:46:00.193Z,25.50
2023-05-17T08:48:31.376Z,17.30
2023-05-17T08:50:59.937Z,17.40
2023-05-17T08:53:28.226Z,10.30
2023-05-17T08:55:59.116Z,12.30
2023-05-17T08:58:32.350Z,14.60
2023-05-17T09:01:00.757Z,6.90
2023-05-17T09:03:30.509Z,14.10
2023-05-17T09:06:00.123Z,17.30
2023-05-17T09:08:30.081Z,5.20
2023-05-17T09:10:59.676Z,9.30
2023-05-17T09:13:27.786Z,7.80
2023-05-17T09:15:56.033Z,4.40
2023-05-17T09:18:30.561Z,3.40
2023-05-17T09:21:03.053Z,1.00
2023-05-17T09:23:32.974Z,1.00
2023-05-17T09:26:13.660Z,5.80
2023-05-17T09:28:42.341Z,3.30
2023-05-17T09:31:10.760Z,5.90
2023-05-17T09:33:43.996Z,1.60
2023-05-17T09:36:19.224Z,1.60
2023-05-17T09:38:54.484Z,5.30
2023-05-17T09:41:27.335Z,1.00
2023-05-17T09:43:58.581Z,1.00
2023-05-17T09:46:26.588Z,19.00
2023-05-17T09:48:55.523Z,5.40
2023-05-17T09:51:33.352Z,11.60
2023-05-17T09:54:01.376Z,18.40
2023-05-17T09:56:31.293Z,17.50
2023-05-17T09:59:00.801Z,20.50
2023-05-17T10:01:29.608Z,19.70
2023-05-17T10:04:00.543Z,17.70
2023-05-17T10:06:44.108Z,18.20
2023-05-17T10:09:15.761Z,18.10
2023-05-17T10:11:47.648Z,27.50
2023-05-17T10:14:18.644Z,19.70
2023-05-17T10:16:46.909Z,29.40
2023-05-17T10:19:15.270Z,29.80
2023-05-17T10:21:44.191Z,28.10
2023-05-17T10:24:12.515Z,25.00
2023-05-17T10:26:40.932Z,28.40
2023-05-17T10:29:11.089Z,28.30
2023-05-17T10:31:39.018Z,28.10
2023-05-17T10:34:07.536Z,29.80
2023-05-17T10:36:35.618Z,28.80
2023-05-17T10:39:03.630Z,30.50
2023-05-17T10:41:32.854Z,30.80
2023-05-17T10:44:02.767Z,31.20
2023-05-17T10:46:32.336Z,28.70
2023-05-17T10:49:01.973Z,26.80
2023-05-17T10:51:32.322Z,25.10
2023-05-17T10:54:10.282Z,29.40
2023-05-17T10:56:41.242Z,29.10
2023-05-17T10:59:16.132Z,28.90
2023-05-17T11:01:55.451Z,29.90
2023-05-17T11:04:25.616Z,29.10
2023-05-17T11:06:54.603Z,30.20
2023-05-17T11:09:23.730Z,29.40
2023-05-17T11:12:08.129Z,29.10
2023-05-17T11:14:49.005Z,30.60
2023-05-17T11:17:19.405Z,31.50
2023-05-17T11:19:51.645Z,35.00
2023-05-17T11:22:23.764Z,35.70
2023-05-17T11:24:52.668Z,37.30
2023-05-17T11:27:23.360Z,37.50
2023-05-17T11:29:51.368Z,38.40
2023-05-17T11:32:27.687Z,40.00
2023-05-17T11:34:55.867Z,40.30
2023-05-17T11:37:26.914Z,36.60
2023-05-17T11:40:05.725Z,38.20
2023-05-17T11:42:33.805Z,41.10
2023-05-17T11:45:02.342Z,41.30
2023-05-17T11:47:31.767Z,40.90
2023-05-17T11:50:01.825Z,41.50
2023-05-17T11:52:29.747Z,41.10
2023-05-17T11:54:58.242Z,41.10
2023-05-17T11:57:30.801Z,43.20
2023-05-17T12:00:02.581Z,42.50
2023-05-17T12:02:32.993Z,43.90
2023-05-17T12:05:01.174Z,44.90
2023-05-17T12:07:29.685Z,44.00
2023-05-17T12:09:57.625Z,45.10
2023-05-17T12:12:26.162Z,43.90
2023-05-17T12:14:54.149Z,45.60
2023-05-17T12:17:25.867Z,44.90
2023-05-17T12:19:55.567Z,46.00
2023-05-17T12:22:23.592Z,46.60
2023-05-17T12:24:51.627Z,46.40
2023-05-17T12:27:26.043Z,47.40
2023-05-17T12:29:54.191Z,45.80
2023-05-17T12:32:22.330Z,47.80
2023-05-17T12:34:50.446Z,45.90
2023-05-17T12:37:19.722Z,48.00
2023-05-17T12:39:48.247Z,46.90
2023-05-17T12:42:16.311Z,46.90
2023-05-17T12:44:44.251Z,46.90
2023-05-17T12:47:12.376Z,50.10
2023-05-17T12:49:41.008Z,49.80
2023-05-17T12:52:09.040Z,51.20
2023-05-17T12:54:40.581Z,50.70
2023-05-17T12:57:13.914Z,49.50
2023-05-17T12:59:48.780Z,50.20
2023-05-17T13:02:17.272Z,51.10
2023-05-17T13:04:46.452Z,51.00
2023-05-17T13:07:21.847Z,50.50
2023-05-17T13:09:51.191Z,50.90
2023-05-17T13:12:20.548Z,50.70
2023-05-17T13:14:48.998Z,40.80
2023-05-17T13:17:19.003Z,37.60
2023-05-17T13:19:47.105Z,39.40
2023-05-17T13:22:15.449Z,40.00
2023-05-17T13:24:44.179Z,40.20
2023-05-17T13:27:13.720Z,40.00
2023-05-17T13:29:42.487Z,41.20
2023-05-17T13:32:11.491Z,43.10
2023-05-17T13:34:40.092Z,43.00
2023-05-17T13:37:11.674Z,42.90
2023-05-17T13:39:40.881Z,41.40
2023-05-17T13:42:09.689Z,43.20
2023-05-17T13:44:39.345Z,44.60
2023-05-17T13:47:07.502Z,44.70
2023-05-17T13:49:36.123Z,40.80
2023-05-17T13:52:08.882Z,43.50
2023-05-17T13:54:37.106Z,42.80
2023-05-17T13:57:05.576Z,42.20
2023-05-17T13:59:33.483Z,43.90
2023-05-17T14:02:04.227Z,40.20
2023-05-17T14:04:32.149Z,40.50
2023-05-17T14:07:00.067Z,41.80
2023-05-17T14:09:30.601Z,38.40
2023-05-17T14:12:00.933Z,36.10
2023-05-17T14:14:29.256Z,35.90
2023-05-17T14:16:57.706Z,37.00
2023-05-17T14:19:27.084Z,25.10
2023-05-17T14:21:55.065Z,29.80
2023-05-17T14:24:23.056Z,31.40
2023-05-17T14:26:51.220Z,30.80
2023-05-17T14:29:19.164Z,30.00
2023-05-17T14:31:47.054Z,30.00
2023-05-17T14:34:14.970Z,28.80
2023-05-17T14:36:44.333Z,31.60
2023-05-17T14:39:12.233Z,30.70
2023-05-17T14:41:41.180Z,29.10
2023-05-17T14:44:10.005Z,31.10
2023-05-17T14:46:37.938Z,32.20
2023-05-17T14:49:06.922Z,30.10
2023-05-17T14:51:34.903Z,30.10
2023-05-17T14:54:04.521Z,30.50
2023-05-17T14:56:32.412Z,30.70
2023-05-17T14:59:00.634Z,30.20
2023-05-17T15:01:29.111Z,27.00
2023-05-17T15:03:57.202Z,24.20
2023-05-17T15:06:25.651Z,18.90
2023-05-17T15:08:54.461Z,19.80
2023-05-17T15:11:23.884Z,22.10
2023-05-17T15:13:51.810Z,20.80
2023-05-17T15:16:19.845Z,9.50
2023-05-17T15:18:48.360Z,14.40
2023-05-17T15:21:17.668Z,9.80
2023-05-17T15:23:46.017Z,9.30
2023-05-17T15:26:13.933Z,11.40
2023-05-17T15:28:43.591Z,15.20
2023-05-17T15:31:11.656Z,10.20
2023-05-17T15:33:40.377Z,5.00
2023-05-17T15:36:09.004Z,4.30
2023-05-17T15:38:37.718Z,8.80
2023-05-17T15:41:07.549Z,7.50
2023-05-17T15:43:35.918Z,6.90
2023-05-17T15:46:05.227Z,5.70
2023-05-17T15:48:34.403Z,1.80
2023-05-17T15:51:02.695Z,1.00
2023-05-17T15:53:34.389Z,1.00
2023-05-17T15:56:02.752Z,1.00
2023-05-17T15:58:33.211Z,1.00
2023-05-17T16:01:03.795Z,1.00
2023-05-17T16:03:33.102Z,1.00
2023-05-17T16:06:01.196Z,1.00
2023-05-17T16:08:29.211Z,1.00
2023-05-17T16:10:57.125Z,1.00
2023-05-17T16:13:25.096Z,1.00
2023-05-17T16:15:53.322Z,1.00
2023-05-17T16:18:21.304Z,1.00
2023-05-17T16:20:57.741Z,1.00
2023-05-17T16:23:25.650Z,1.00
2023-05-17T16:25:54.514Z,1.00
2023-05-17T16:28:22.673Z,1.00
2023-05-17T16:30:50.694Z,1.00
2023-05-17T16:33:20.297Z,1.00
2023-05-17T16:35:50.296Z,1.00
2023-05-17T16:38:18.181Z,1.00
2023-05-17T16:40:46.732Z,1.00
2023-05-17T16:43:16.158Z,1.00
2023-05-17T16:45:44.922Z,1.00
2023-05-17T16:48:13.424Z,1.00
2023-05-17T16:50:41.459Z,1.00
2023-05-17T16:53:10.777Z,2.80
2023-05-17T16:55:38.714Z,1.00
2023-05-17T16:58:06.640Z,1.50
2023-05-17T17:00:34.889Z,1.60
2023-05-17T17:03:02.858Z,3.60
2023-05-17T17:05:31.007Z,1.00
2023-05-17T17:07:58.895Z,1.80
2023-05-17T17:10:28.390Z,5.60
2023-05-17T17:12:56.619Z,13.80
2023-05-17T17:15:24.692Z,15.10
2023-05-17T17:17:52.741Z,5.90
2023-05-17T17:20:20.866Z,10.20
2023-05-17T17:22:48.767Z,20.40
2023-05-17T17:25:16.663Z,19.20
2023-05-17T17:27:45.991Z,24.20
2023-05-17T17:30:14.069Z,23.90
2023-05-17T17:32:42.097Z,28.00
2023-05-17T17:35:10.588Z,35.70
2023-05-17T17:37:38.468Z,31.80
2023-05-17T17:40:07.341Z,34.30
2023-05-17T17:42:35.368Z,36.90
2023-05-17T17:45:05.013Z,29.70
2023-05-17T17:47:33.022Z,38.60
2023-05-17T17:50:01.125Z,33.40
2023-05-17T17:52:29.072Z,42.40
2023-05-17T17:54:57.506Z,37.20
2023-05-17T17:57:25.761Z,39.60
2023-05-17T17:59:53.827Z,41.00
2023-05-17T18:02:23.234Z,37.30
2023-05-17T18:04:51.416Z,46.60
2023-05-17T18:07:20.170Z,50.90
2023-05-17T18:09:48.061Z,58.80
2023-05-17T18:12:16.032Z,57.50
2023-05-17T18:14:44.140Z,61.60
2023-05-17T18:17:12.155Z,59.10
2023-05-17T18:19:41.549Z,64.90
2023-05-17T18:22:09.492Z,69.10
2023-05-17T18:24:37.387Z,66.10
2023-05-17T18:27:05.527Z,68.60
2023-05-17T18:29:33.524Z,62.80
2023-05-17T18:32:01.949Z,66.40
2023-05-17T18:34:29.854Z,69.30
2023-05-17T18:36:59.144Z,79.60
2023-05-17T18:39:27.216Z,78.90
2023-05-17T18:41:55.156Z,83.20
2023-05-17T18:44:23.118Z,83.20
2023-05-17T18:46:51.120Z,87.40
2023-05-17T18:49:19.168Z,86.90
2023-05-17T18:51:47.024Z,71.70
2023-05-17T18:54:16.236Z,83.80
2023-05-17T18:56:44.279Z,76.40
2023-05-17T18:59:12.171Z,81.10
2023-05-17T19:01:40.088Z,85.60
2023-05-17T19:04:08.123Z,90.40
2023-05-17T19:06:36.076Z,78.70
2023-05-17T19:09:04.019Z,76.20
2023-05-17T19:11:33.268Z,84.10
2023-05-17T19:14:01.187Z,86.10
2023-05-17T19:16:29.027Z,84.20
2023-05-17T19:18:56.917Z,77.80
2023-05-17T19:21:24.833Z,83.30
2023-05-17T19:23:52.774Z,86.20
2023-05-17T19:26:21.639Z,86.20
2023-05-17T19:28:50.995Z,89.40
2023-05-17T19:31:19.011Z,91.10
2023-05-17T19:33:46.886Z,91.40
2023-05-17T19:36:14.839Z,92.40
2023-05-17T19:38:42.704Z,93.00
2023-05-17T19:41:10.699Z,92.10
2023-05-17T19:43:38.587Z,93.80
2023-05-17T19:46:10.610Z,93.50
2023-05-17T19:48:39.463Z,93.30
2023-05-17T19:51:07.484Z,93.70
2023-05-17T19:53:50.857Z,95.70
2023-05-17T19:56:21.341Z,96.10
2023-05-17T19:58:49.268Z,94.60
2023-05-17T20:01:18.691Z,95.90
2023-05-17T20:03:46.731Z,94.60
2023-05-17T20:06:15.133Z,91.00
2023-05-17T20:08:43.472Z,91.50
2023-05-17T20:11:11.384Z,91.10
2023-05-17T20:13:40.453Z,94.30
2023-05-17T20:16:12.693Z,94.90
2023-05-17T20:18:43.173Z,95.80
2023-05-17T20:21:12.620Z,95.50
2023-05-17T20:23:41.019Z,95.80
2023-05-17T20:26:15.924Z,95.70
2023-05-17T20:28:43.868Z,97.20
2023-05-17T20:31:12.057Z,98.40
2023-05-17T20:33:40.018Z,97.50
2023-05-17T20:36:10.946Z,97.60
2023-05-17T20:38:38.878Z,98.60
2023-05-17T20:41:07.581Z,98.70
2023-05-17T20:43:36.784Z,97.60
2023-05-17T20:46:06.983Z,99.10
2023-05-17T20:48:35.258Z,99.90
2023-05-17T20:51:03.691Z,99.90
2023-05-17T20:53:33.059Z,99.60
2023-05-17T20:56:01.017Z,99.90
2023-05-17T20:58:29.675Z,99.90
2023-05-17T21:00:57.731Z,99.90
2023-05-17T21:03:28.510Z,99.30
2023-05-17T21:05:56.716Z,99.90
2023-05-17T21:08:24.598Z,99.90
2023-05-17T21:10:53.859Z,99.90
2023-05-17T21:13:23.388Z,99.60
2023-05-17T21:15:51.281Z,99.90
2023-05-17T21:18:19.234Z,99.90
2023-05-17T21:20:47.134Z,99.90
2023-05-17T21:23:15.124Z,99.90
2023-05-17T21:25:44.293Z,99.10
2023-05-17T21:28:13.616Z,99.20
2023-05-17T21:30:41.527Z,98.60
2023-05-17T21:33:09.512Z,99.20
2023-05-17T21:35:37.438Z,99.30
2023-05-17T21:38:05.278Z,98.60
2023-05-17T21:40:33.461Z,98.30
2023-05-17T21:43:01.630Z,98.10
2023-05-17T21:45:31.063Z,96.80
2023-05-17T21:47:59.041Z,98.00
2023-05-17T21:50:26.993Z,98.00
2023-05-17T21:52:54.871Z,98.10
2023-05-17T21:55:22.867Z,98.80
2023-05-17T21:57:50.758Z,99.10
2023-05-17T22:00:20.152Z,99.00
2023-05-17T22:02:49.504Z,98.40
2023-05-17T22:05:17.447Z,99.20
2023-05-17T22:07:45.306Z,98.20
2023-05-17T22:10:13.329Z,98.00
2023-05-17T22:12:41.878Z,98.50
2023-05-17T22:15:10.982Z,99.60
2023-05-17T22:17:51.005Z,99.50
2023-05-17T22:20:23.545Z,99.90
2023-05-17T22:22:51.778Z,99.70
2023-05-17T22:25:19.673Z,99.80
2023-05-17T22:27:47.860Z,99.90
2023-05-17T22:30:16.051Z,99.90
2023-05-17T22:32:44.442Z,99.90
2023-05-17T22:35:12.390Z,99.90
2023-05-17T22:37:42.734Z,99.90
2023-05-17T22:40:11.838Z,98.30
2023-05-17T22:42:39.831Z,99.00
2023-05-17T22:45:08.082Z,99.70
2023-05-17T22:47:36.688Z,98.90
2023-05-17T22:50:04.974Z,98.30
2023-05-17T22:52:32.979Z,99.50
2023-05-17T22:55:02.472Z,99.60
2023-05-17T22:57:30.381Z,99.90
2023-05-17T22:59:58.274Z,99.90
2023-05-17T23:02:26.240Z,99.90
2023-05-17T23:04:55.703Z,99.90
2023-05-17T23:07:23.656Z,99.90
2023-05-17T23:09:53.745Z,99.90
2023-05-17T23:12:27.501Z,99.90
2023-05-17T23:14:57.830Z,99.90
2023-05-17T23:17:26.549Z,99.90
2023-05-17T23:19:54.509Z,99.90
2023-05-17T23:22:22.398Z,99.90
2023-05-17T23:24:50.288Z,99.90
2023-05-17T23:27:18.453Z,99.90
2023-05-17T23:29:47.736Z,99.90
2023-05-17T23:32:15.592Z,99.90
2023-05-17T23:34:45.459Z,99.90
2023-05-17T23:37:13.345Z,99.90
2023-05-17T23:39:41.341Z,99.90
2023-05-17T23:42:10.912Z,99.90
2023-05-17T23:44:41.960Z,99.90
2023-05-17T23:47:12.291Z,99.90
2023-05-17T23:49:40.305Z,99.90
2023-05-17T23:52:11.186Z,99.90
2023-05-17T23:54:39.619Z,99.90
2023-05-17T23:57:07.783Z,99.90
2023-05-17T23:59:36.543Z,99.90
